createdAt,value
2018-10-16T00:01:41.972Z,19.63
2018-10-16T00:04:10.636Z,24.60
2018-10-16T00:06:39.192Z,26.93
2018-10-16T00:09:09.536Z,19.90
2018-10-16T00:11:42.692Z,18.20
2018-10-16T00:14:11.231Z,19.60
2018-10-16T00:16:39.817Z,20.67
2018-10-16T00:19:08.465Z,23.70
2018-10-16T00:21:36.774Z,21.60
2018-10-16T00:24:05.904Z,20.43
2018-10-16T00:26:34.488Z,23.80
2018-10-16T00:29:02.780Z,18.53
2018-10-16T00:31:31.396Z,21.70
2018-10-16T00:33:59.746Z,24.17
2018-10-16T00:36:28.035Z,22.27
2018-10-16T00:38:56.543Z,19.63
2018-10-16T00:41:24.889Z,21.00
2018-10-16T00:43:53.172Z,20.03
2018-10-16T00:46:21.984Z,19.20
2018-10-16T00:48:50.404Z,23.10
2018-10-16T00:51:19.226Z,22.27
2018-10-16T00:53:47.783Z,18.65
2018-10-16T00:56:16.118Z,31.90
2018-10-16T00:58:44.413Z,21.67
2018-10-16T01:01:12.881Z,21.73
2018-10-16T01:03:41.185Z,19.60
2018-10-16T01:06:09.606Z,19.47
2018-10-16T01:08:38.184Z,24.40
2018-10-16T01:11:10.607Z,26.10
2018-10-16T01:13:39.292Z,25.77
2018-10-16T01:16:07.984Z,29.23
2018-10-16T01:18:36.584Z,22.63
2018-10-16T01:21:05.561Z,25.13
2018-10-16T01:23:34.154Z,20.57
2018-10-16T01:26:02.509Z,22.40
2018-10-16T01:28:30.819Z,21.40
2018-10-16T01:30:59.141Z,21.07
2018-10-16T01:33:28.119Z,22.62
2018-10-16T01:35:56.735Z,21.20
2018-10-16T01:38:25.059Z,19.83
2018-10-16T01:40:53.816Z,19.57
2018-10-16T01:43:22.435Z,19.82
2018-10-16T01:45:50.738Z,19.37
2018-10-16T01:48:19.399Z,21.27
2018-10-16T01:50:48.185Z,22.57
2018-10-16T01:53:16.531Z,20.10
2018-10-16T01:55:44.948Z,19.70
2018-10-16T01:58:13.442Z,26.03
2018-10-16T02:00:41.952Z,25.57
2018-10-16T02:03:10.834Z,25.67
2018-10-16T02:05:39.137Z,20.97
2018-10-16T02:08:08.620Z,24.67
2018-10-16T02:10:37.936Z,18.77
2018-10-16T02:13:06.622Z,19.33
2018-10-16T02:15:35.197Z,21.65
2018-10-16T02:18:03.504Z,24.63
2018-10-16T02:20:31.816Z,22.30
2018-10-16T02:23:00.345Z,28.40
2018-10-16T02:25:28.659Z,21.63
2018-10-16T02:27:57.268Z,24.80
2018-10-16T02:30:26.089Z,23.67
2018-10-16T02:32:54.682Z,15.32
2018-10-16T02:35:23.318Z,17.80
2018-10-16T02:37:51.894Z,21.23
2018-10-16T02:40:20.346Z,17.83
2018-10-16T02:42:48.642Z,24.00
2018-10-16T02:45:16.974Z,18.00
2018-10-16T02:47:45.276Z,18.97
2018-10-16T02:50:13.580Z,19.40
2018-10-16T02:52:41.864Z,18.80
2018-10-16T02:55:11.607Z,20.62
2018-10-16T02:57:40.581Z,23.62
2018-10-16T03:00:09.055Z,19.10
2018-10-16T03:02:37.976Z,22.98
2018-10-16T03:05:06.800Z,18.80
2018-10-16T03:07:35.280Z,23.70
2018-10-16T03:10:04.024Z,21.37
2018-10-16T03:12:32.937Z,23.53
2018-10-16T03:15:01.421Z,20.50
2018-10-16T03:17:29.986Z,20.80
2018-10-16T03:19:58.288Z,19.00
2018-10-16T03:22:26.827Z,20.43
2018-10-16T03:24:55.179Z,19.40
2018-10-16T03:27:23.748Z,22.50
2018-10-16T03:29:52.396Z,19.07
2018-10-16T03:32:20.746Z,23.93
2018-10-16T03:34:49.535Z,19.12
2018-10-16T03:37:17.986Z,20.70
2018-10-16T03:39:46.299Z,22.57
2018-10-16T03:42:15.088Z,19.80
2018-10-16T03:44:43.380Z,17.50
2018-10-16T03:47:12.523Z,19.50
2018-10-16T03:49:41.730Z,22.05
2018-10-16T03:52:10.369Z,20.90
2018-10-16T03:54:38.734Z,19.83
2018-10-16T03:57:07.336Z,19.83
2018-10-16T03:59:35.783Z,18.43
2018-10-16T04:02:04.663Z,19.43
2018-10-16T04:04:33.246Z,17.67
2018-10-16T04:07:01.557Z,17.93
2018-10-16T04:09:30.497Z,18.20
2018-10-16T04:11:59.253Z,19.67
2018-10-16T04:14:27.822Z,20.20
2018-10-16T04:16:56.116Z,23.47
2018-10-16T04:19:24.384Z,19.27
2018-10-16T04:21:52.894Z,19.47
2018-10-16T04:24:21.178Z,23.87
2018-10-16T04:26:49.608Z,18.33
2018-10-16T04:29:18.144Z,23.23
2018-10-16T04:31:46.886Z,21.37
2018-10-16T04:34:15.478Z,20.43
2018-10-16T04:36:43.907Z,17.20
2018-10-16T04:39:14.128Z,25.83
2018-10-16T04:41:43.098Z,21.05
2018-10-16T04:44:11.533Z,20.43
2018-10-16T04:46:39.867Z,22.87
2018-10-16T04:49:08.466Z,19.92
2018-10-16T04:51:36.728Z,38.37
2018-10-16T04:54:05.304Z,23.12
2018-10-16T04:56:33.900Z,20.70
2018-10-16T04:59:02.159Z,30.93
2018-10-16T05:01:30.702Z,33.50
2018-10-16T05:03:59.022Z,20.83
2018-10-16T05:06:27.995Z,25.03
2018-10-16T05:08:56.462Z,23.17
2018-10-16T05:11:24.829Z,21.27
2018-10-16T05:13:53.371Z,26.13
2018-10-16T05:16:21.681Z,19.60
2018-10-16T05:18:50.044Z,23.50
2018-10-16T05:21:18.525Z,17.57
2018-10-16T05:23:47.054Z,24.03
2018-10-16T05:26:15.320Z,19.53
2018-10-16T05:28:43.858Z,19.10
2018-10-16T05:31:12.835Z,21.17
2018-10-16T05:33:41.482Z,19.70
2018-10-16T05:36:09.978Z,19.07
2018-10-16T05:38:38.293Z,20.07
2018-10-16T05:41:07.085Z,19.33
2018-10-16T05:43:35.628Z,27.50
2018-10-16T05:46:03.963Z,20.63
2018-10-16T05:48:32.522Z,20.82
2018-10-16T05:51:01.124Z,21.63
2018-10-16T05:53:29.405Z,20.88
2018-10-16T05:56:00.945Z,23.30
2018-10-16T05:58:29.279Z,27.10
2018-10-16T06:00:57.837Z,18.53
2018-10-16T06:03:26.325Z,27.83
2018-10-16T06:05:54.824Z,28.90
2018-10-16T06:08:23.088Z,38.03
2018-10-16T06:10:51.484Z,35.70
2018-10-16T06:13:20.197Z,48.00
2018-10-16T06:15:48.833Z,31.73
2018-10-16T06:18:17.299Z,36.37
2018-10-16T06:20:47.068Z,41.58
2018-10-16T06:23:15.684Z,31.80
2018-10-16T06:25:44.048Z,39.60
2018-10-16T06:28:22.992Z,43.13
2018-10-16T06:30:51.855Z,35.37
2018-10-16T06:33:26.473Z,36.03
2018-10-16T06:35:55.184Z,41.60
2018-10-16T06:38:23.777Z,33.73
2018-10-16T06:40:52.467Z,26.60
2018-10-16T06:43:21.239Z,23.73
2018-10-16T06:45:49.503Z,23.83
2018-10-16T06:48:18.753Z,21.45
2018-10-16T06:50:47.176Z,28.40
2018-10-16T06:53:16.101Z,24.37
2018-10-16T06:55:45.072Z,32.40
2018-10-16T06:58:13.373Z,20.70
2018-10-16T07:00:41.637Z,22.30
2018-10-16T07:03:09.959Z,20.87
2018-10-16T07:05:38.500Z,20.00
2018-10-16T07:08:06.968Z,17.83
2018-10-16T07:10:35.260Z,20.30
2018-10-16T07:13:03.885Z,16.93
2018-10-16T07:15:32.525Z,14.47
2018-10-16T07:18:00.845Z,27.07
2018-10-16T07:20:29.147Z,18.00
2018-10-16T07:22:57.692Z,12.65
2018-10-16T07:25:25.984Z,32.03
2018-10-16T07:27:54.693Z,21.67
2018-10-16T07:30:23.179Z,15.23
2018-10-16T07:32:51.591Z,13.40
2018-10-16T07:35:20.083Z,16.97
2018-10-16T07:37:48.457Z,14.53
2018-10-16T07:40:17.500Z,18.17
2018-10-16T07:42:45.820Z,19.23
2018-10-16T07:45:14.290Z,16.43
2018-10-16T07:47:42.981Z,14.23
2018-10-16T07:50:12.101Z,13.67
2018-10-16T07:52:40.708Z,14.07
2018-10-16T07:55:12.093Z,15.53
2018-10-16T07:57:41.044Z,14.00
2018-10-16T08:00:10.737Z,16.43
2018-10-16T08:02:39.755Z,16.80
2018-10-16T08:05:09.130Z,13.47
2018-10-16T08:07:37.955Z,13.40
2018-10-16T08:10:08.300Z,22.60
2018-10-16T08:12:36.680Z,22.03
2018-10-16T08:15:06.433Z,19.83
2018-10-16T08:17:35.361Z,29.20
2018-10-16T08:20:03.839Z,16.40
2018-10-16T08:22:32.200Z,16.03
2018-10-16T08:25:00.620Z,23.90
2018-10-16T08:27:28.999Z,17.07
2018-10-16T08:29:57.636Z,16.03
2018-10-16T08:32:26.238Z,22.83
2018-10-16T08:34:54.689Z,21.83
2018-10-16T08:37:32.044Z,26.23
2018-10-16T08:40:01.320Z,17.87
2018-10-16T08:42:44.174Z,24.83
2018-10-16T08:45:23.870Z,25.57
2018-10-16T08:48:03.728Z,17.63
2018-10-16T08:50:44.936Z,22.90
2018-10-16T08:53:13.620Z,17.60
2018-10-16T08:55:42.187Z,20.17
2018-10-16T08:58:10.444Z,19.00
2018-10-16T09:00:39.122Z,18.10
2018-10-16T09:03:07.773Z,13.73
2018-10-16T09:05:36.048Z,20.50
2018-10-16T09:08:04.731Z,17.60
2018-10-16T09:10:33.021Z,21.73
2018-10-16T09:13:01.745Z,20.33
2018-10-16T09:15:30.214Z,18.13
2018-10-16T09:17:58.637Z,15.90
2018-10-16T09:20:26.922Z,18.03
2018-10-16T09:22:55.208Z,19.57
2018-10-16T09:25:23.883Z,20.10
2018-10-16T09:27:52.441Z,17.10
2018-10-16T09:30:20.792Z,19.10
2018-10-16T09:32:49.372Z,18.97
2018-10-16T09:35:17.672Z,35.97
2018-10-16T09:37:46.146Z,16.40
2018-10-16T09:40:14.839Z,19.57
2018-10-16T09:42:43.119Z,20.57
2018-10-16T09:45:11.773Z,19.03
2018-10-16T09:47:40.952Z,17.67
2018-10-16T09:50:10.280Z,25.53
2018-10-16T09:52:39.213Z,21.27
2018-10-16T09:55:09.355Z,16.95
2018-10-16T09:57:38.055Z,15.23
2018-10-16T10:00:13.085Z,17.37
2018-10-16T10:02:41.491Z,19.80
2018-10-16T10:05:09.934Z,19.67
2018-10-16T10:07:38.299Z,17.07
2018-10-16T10:10:06.820Z,16.70
2018-10-16T10:12:35.365Z,17.60
2018-10-16T10:15:04.073Z,17.70
2018-10-16T10:17:32.333Z,14.80
2018-10-16T10:20:00.623Z,19.00
2018-10-16T10:22:28.909Z,15.30
2018-10-16T10:24:57.543Z,11.97
2018-10-16T10:27:26.516Z,11.93
2018-10-16T10:29:55.162Z,14.60
2018-10-16T10:32:23.580Z,11.03
2018-10-16T10:34:51.868Z,19.30
2018-10-16T10:37:20.408Z,14.23
2018-10-16T10:39:48.688Z,11.60
2018-10-16T10:42:17.749Z,14.87
2018-10-16T10:44:46.435Z,12.00
2018-10-16T10:47:14.845Z,15.10
2018-10-16T10:49:43.149Z,9.60
2018-10-16T10:52:11.428Z,11.30
2018-10-16T10:54:40.284Z,11.83
2018-10-16T10:57:09.023Z,14.13
2018-10-16T10:59:37.372Z,12.83
2018-10-16T11:02:06.014Z,11.13
2018-10-16T11:04:34.568Z,13.80
2018-10-16T11:07:03.233Z,12.10
2018-10-16T11:09:31.731Z,10.00
2018-10-16T11:12:00.348Z,9.77
2018-10-16T11:14:28.942Z,17.20
2018-10-16T11:16:57.217Z,11.60
2018-10-16T11:19:25.591Z,11.93
2018-10-16T11:21:54.092Z,11.90
2018-10-16T11:24:22.385Z,9.10
2018-10-16T11:26:50.697Z,12.57
2018-10-16T11:29:19.135Z,14.60
2018-10-16T11:31:47.796Z,12.05
2018-10-16T11:34:16.410Z,12.37
2018-10-16T11:36:44.995Z,14.30
2018-10-16T11:39:13.672Z,10.33
2018-10-16T11:41:42.075Z,11.90
2018-10-16T11:44:11.999Z,9.13
2018-10-16T11:46:42.224Z,12.43
2018-10-16T11:49:11.176Z,9.20
2018-10-16T11:51:39.471Z,15.50
2018-10-16T11:54:08.389Z,11.17
2018-10-16T11:56:37.877Z,9.78
2018-10-16T11:59:07.024Z,11.43
2018-10-16T12:01:35.324Z,17.33
2018-10-16T12:04:04.072Z,14.63
2018-10-16T12:06:32.998Z,9.65
2018-10-16T12:09:01.560Z,11.83
2018-10-16T12:11:31.183Z,10.80
2018-10-16T12:13:59.798Z,16.70
2018-10-16T12:16:31.568Z,11.80
2018-10-16T12:19:09.743Z,9.93
2018-10-16T12:21:38.182Z,9.80
2018-10-16T12:24:06.636Z,13.60
2018-10-16T12:26:35.473Z,14.70
2018-10-16T12:29:04.210Z,14.37
2018-10-16T12:31:32.652Z,10.30
2018-10-16T12:34:01.108Z,12.27
2018-10-16T12:36:29.460Z,15.83
2018-10-16T12:38:58.052Z,12.83
2018-10-16T12:41:26.524Z,8.90
2018-10-16T12:43:54.926Z,11.37
2018-10-16T12:46:23.911Z,8.15
2018-10-16T12:48:52.190Z,16.53
2018-10-16T12:51:20.728Z,17.20
2018-10-16T12:53:49.283Z,8.93
2018-10-16T12:56:17.640Z,8.63
2018-10-16T12:58:46.087Z,8.33
2018-10-16T13:01:14.838Z,12.43
2018-10-16T13:03:43.498Z,9.77
2018-10-16T13:06:12.047Z,12.97
2018-10-16T13:08:40.362Z,6.67
2018-10-16T13:11:08.722Z,8.03
2018-10-16T13:13:37.708Z,8.43
2018-10-16T13:16:06.586Z,9.63
2018-10-16T13:18:35.279Z,10.40
2018-10-16T13:21:03.839Z,6.97
2018-10-16T13:23:32.213Z,9.10
2018-10-16T13:26:00.702Z,12.73
2018-10-16T13:28:29.361Z,11.70
2018-10-16T13:30:57.808Z,9.47
2018-10-16T13:33:26.278Z,8.80
2018-10-16T13:35:54.817Z,11.22
2018-10-16T13:38:23.359Z,8.13
2018-10-16T13:40:51.671Z,7.60
2018-10-16T13:43:19.973Z,6.93
2018-10-16T13:45:48.253Z,10.87
2018-10-16T13:48:16.848Z,6.43
2018-10-16T13:50:45.112Z,10.23
2018-10-16T13:53:13.860Z,8.67
2018-10-16T13:55:42.217Z,7.60
2018-10-16T13:58:10.864Z,7.75
2018-10-16T14:00:39.331Z,8.20
2018-10-16T14:03:07.633Z,6.67
2018-10-16T14:05:36.012Z,9.50
2018-10-16T14:08:04.305Z,12.43
2018-10-16T14:10:32.916Z,6.27
2018-10-16T14:13:01.180Z,6.30
2018-10-16T14:15:29.790Z,8.17
2018-10-16T14:17:58.189Z,7.43
2018-10-16T14:20:26.799Z,6.50
2018-10-16T14:22:55.059Z,8.07
2018-10-16T14:25:23.616Z,6.58
2018-10-16T14:27:52.590Z,12.00
2018-10-16T14:30:21.284Z,6.33
2018-10-16T14:32:50.025Z,13.43
2018-10-16T14:35:18.311Z,10.23
2018-10-16T14:37:46.619Z,8.80
2018-10-16T14:40:16.235Z,10.20
2018-10-16T14:42:44.813Z,11.43
2018-10-16T14:45:13.813Z,8.63
2018-10-16T14:47:42.663Z,9.90
2018-10-16T14:50:12.159Z,7.10
2018-10-16T14:52:40.565Z,7.70
2018-10-16T14:55:09.006Z,7.00
2018-10-16T14:57:37.738Z,12.73
2018-10-16T15:00:08.493Z,8.43
2018-10-16T15:02:36.790Z,6.30
2018-10-16T15:05:06.469Z,7.17
2018-10-16T15:07:34.895Z,10.97
2018-10-16T15:10:04.026Z,12.00
2018-10-16T15:12:33.409Z,7.27
2018-10-16T15:15:02.917Z,10.70
2018-10-16T15:17:31.704Z,7.37
2018-10-16T15:20:00.523Z,8.93
2018-10-16T15:22:29.279Z,10.53
2018-10-16T15:24:57.843Z,7.47
2018-10-16T15:27:27.808Z,9.27
2018-10-16T15:29:56.125Z,12.43
2018-10-16T15:32:24.471Z,7.93
2018-10-16T15:34:53.027Z,16.83
2018-10-16T15:37:21.621Z,11.40
2018-10-16T15:39:50.136Z,8.07
2018-10-16T15:42:18.638Z,8.40
2018-10-16T15:44:47.180Z,7.50
2018-10-16T15:47:15.784Z,10.40
2018-10-16T15:49:44.042Z,7.70
2018-10-16T15:52:12.467Z,13.23
2018-10-16T15:54:40.928Z,10.80
2018-10-16T15:57:09.231Z,7.87
2018-10-16T15:59:37.728Z,9.00
2018-10-16T16:02:06.587Z,8.50
2018-10-16T16:04:35.017Z,7.50
2018-10-16T16:07:03.360Z,6.70
2018-10-16T16:09:31.917Z,8.70
2018-10-16T16:12:00.316Z,9.50
2018-10-16T16:14:28.896Z,7.17
2018-10-16T16:16:57.792Z,10.77
2018-10-16T16:19:27.072Z,7.57
2018-10-16T16:21:55.388Z,17.93
2018-10-16T16:24:24.187Z,14.17
2018-10-16T16:26:52.497Z,11.57
2018-10-16T16:29:20.987Z,10.53
2018-10-16T16:31:49.304Z,7.70
2018-10-16T16:34:17.917Z,9.50
2018-10-16T16:36:46.504Z,12.43
2018-10-16T16:39:14.967Z,15.37
2018-10-16T16:41:43.715Z,18.20
2018-10-16T16:44:12.232Z,22.43
2018-10-16T16:46:41.180Z,22.93
2018-10-16T16:49:09.703Z,21.03
2018-10-16T16:51:38.551Z,19.63
2018-10-16T16:54:07.028Z,16.00
2018-10-16T16:56:35.490Z,22.00
2018-10-16T16:59:04.179Z,18.87
2018-10-16T17:01:32.715Z,14.70
2018-10-16T17:04:01.350Z,12.37
2018-10-16T17:06:30.103Z,16.13
2018-10-16T17:08:58.398Z,12.50
2018-10-16T17:11:26.764Z,15.77
2018-10-16T17:13:55.332Z,23.93
2018-10-16T17:16:23.970Z,15.47
2018-10-16T17:18:52.880Z,17.60
2018-10-16T17:21:21.179Z,16.90
2018-10-16T17:23:50.355Z,12.80
2018-10-16T17:26:19.387Z,13.70
2018-10-16T17:28:47.776Z,15.43
2018-10-16T17:31:16.667Z,21.70
2018-10-16T17:33:45.028Z,11.53
2018-10-16T17:36:13.777Z,11.33
2018-10-16T17:38:42.725Z,15.97
2018-10-16T17:41:11.273Z,13.03
2018-10-16T17:43:39.891Z,15.93
2018-10-16T17:46:08.544Z,18.77
2018-10-16T17:48:37.096Z,17.00
2018-10-16T17:51:05.445Z,28.13
2018-10-16T17:53:34.207Z,18.03
2018-10-16T17:56:02.765Z,17.87
2018-10-16T17:58:31.709Z,16.97
2018-10-16T18:00:59.977Z,19.30
2018-10-16T18:03:28.280Z,13.47
2018-10-16T18:05:56.615Z,19.93
2018-10-16T18:08:24.925Z,20.67
2018-10-16T18:10:53.192Z,17.23
2018-10-16T18:13:21.739Z,17.13
2018-10-16T18:15:50.250Z,21.90
2018-10-16T18:18:18.759Z,20.00
2018-10-16T18:20:47.230Z,19.80
2018-10-16T18:23:15.797Z,16.30
2018-10-16T18:25:44.173Z,20.40
2018-10-16T18:28:12.467Z,18.77
2018-10-16T18:30:41.045Z,19.73
2018-10-16T18:33:09.847Z,21.93
2018-10-16T18:35:38.311Z,37.63
2018-10-16T18:38:06.883Z,24.07
2018-10-16T18:40:35.472Z,20.70
2018-10-16T18:43:04.468Z,21.00
2018-10-16T18:45:32.744Z,21.27
2018-10-16T18:48:01.213Z,19.33
2018-10-16T18:50:29.785Z,23.65
2018-10-16T18:52:58.055Z,25.43
2018-10-16T18:55:26.435Z,16.93
2018-10-16T18:57:54.722Z,21.47
2018-10-16T19:00:23.350Z,26.37
2018-10-16T19:02:51.894Z,20.63
2018-10-16T19:05:20.373Z,33.87
2018-10-16T19:07:48.705Z,21.83
2018-10-16T19:10:17.173Z,18.77
2018-10-16T19:12:45.497Z,18.93
2018-10-16T19:15:15.556Z,19.73
2018-10-16T19:17:45.028Z,18.53
2018-10-16T19:20:14.705Z,16.03
2018-10-16T19:22:43.699Z,13.70
2018-10-16T19:25:13.127Z,18.23
2018-10-16T19:27:42.177Z,18.27
2018-10-16T19:30:11.893Z,18.70
2018-10-16T19:32:40.259Z,25.63
2018-10-16T19:35:10.180Z,18.80
2018-10-16T19:37:38.656Z,20.57
2018-10-16T19:40:07.092Z,21.10
2018-10-16T19:42:35.383Z,21.20
2018-10-16T19:45:04.042Z,28.17
2018-10-16T19:47:32.838Z,14.93
2018-10-16T19:50:01.457Z,15.03
2018-10-16T19:52:29.753Z,23.83
2018-10-16T19:54:58.116Z,18.03
2018-10-16T19:57:26.539Z,20.57
2018-10-16T19:59:55.077Z,17.63
2018-10-16T20:02:23.524Z,17.77
2018-10-16T20:04:51.912Z,17.50
2018-10-16T20:07:20.697Z,19.33
2018-10-16T20:09:49.816Z,18.57
2018-10-16T20:12:18.645Z,23.43
2018-10-16T20:14:46.927Z,16.50
2018-10-16T20:17:15.351Z,17.40
2018-10-16T20:19:44.031Z,21.60
2018-10-16T20:22:12.625Z,20.20
2018-10-16T20:24:40.984Z,20.77
2018-10-16T20:27:09.836Z,16.63
2018-10-16T20:29:38.580Z,20.23
2018-10-16T20:32:07.115Z,17.87
2018-10-16T20:34:36.602Z,20.23
2018-10-16T20:37:05.456Z,21.10
2018-10-16T20:39:33.954Z,19.73
2018-10-16T20:42:02.296Z,19.60
2018-10-16T20:44:30.783Z,26.93
2018-10-16T20:46:59.070Z,19.10
2018-10-16T20:49:27.471Z,19.00
2018-10-16T20:51:56.030Z,18.80
2018-10-16T20:54:24.352Z,18.13
2018-10-16T20:56:52.759Z,20.90
2018-10-16T20:59:21.045Z,20.67
2018-10-16T21:01:49.976Z,23.80
2018-10-16T21:04:18.373Z,20.60
2018-10-16T21:06:47.286Z,20.43
2018-10-16T21:09:16.152Z,22.20
2018-10-16T21:11:44.539Z,22.57
2018-10-16T21:14:13.103Z,22.23
2018-10-16T21:16:41.706Z,18.10
2018-10-16T21:19:10.299Z,21.25
2018-10-16T21:21:39.040Z,18.75
2018-10-16T21:24:07.463Z,19.57
2018-10-16T21:26:36.505Z,24.77
2018-10-16T21:29:05.197Z,26.40
2018-10-16T21:31:33.951Z,25.30
2018-10-16T21:34:02.499Z,23.47
2018-10-16T21:36:30.794Z,23.73
2018-10-16T21:38:59.158Z,22.40
2018-10-16T21:41:27.723Z,26.10
2018-10-16T21:43:55.996Z,24.23
2018-10-16T21:46:24.487Z,27.90
2018-10-16T21:48:52.771Z,23.87
2018-10-16T21:51:21.452Z,25.17
2018-10-16T21:53:49.928Z,23.77
2018-10-16T21:56:18.495Z,23.13
2018-10-16T21:58:46.821Z,24.60
2018-10-16T22:01:15.758Z,21.60
2018-10-16T22:03:44.490Z,23.70
2018-10-16T22:06:12.779Z,27.37
2018-10-16T22:08:41.539Z,21.30
2018-10-16T22:11:10.107Z,22.17
2018-10-16T22:13:38.800Z,21.93
2018-10-16T22:16:07.625Z,22.27
2018-10-16T22:18:36.179Z,23.27
2018-10-16T22:21:04.571Z,24.03
2018-10-16T22:23:33.008Z,22.87
2018-10-16T22:26:01.560Z,21.12
2018-10-16T22:28:30.058Z,25.53
2018-10-16T22:30:58.799Z,27.23
2018-10-16T22:33:27.286Z,25.10
2018-10-16T22:35:55.602Z,20.13
2018-10-16T22:38:23.930Z,21.60
2018-10-16T22:40:52.244Z,17.20
2018-10-16T22:43:20.561Z,27.13
2018-10-16T22:45:49.159Z,18.40
2018-10-16T22:48:17.810Z,23.00
2018-10-16T22:50:46.247Z,17.40
2018-10-16T22:53:15.178Z,24.37
2018-10-16T22:55:43.641Z,24.97
2018-10-16T22:58:12.347Z,20.73
2018-10-16T23:00:40.887Z,20.27
2018-10-16T23:03:09.312Z,28.83
2018-10-16T23:05:37.695Z,22.73
2018-10-16T23:08:06.526Z,19.65
2018-10-16T23:10:34.809Z,19.47
2018-10-16T23:13:06.792Z,27.40
2018-10-16T23:15:35.751Z,21.73
2018-10-16T23:18:04.676Z,21.47
2018-10-16T23:20:33.468Z,19.57
2018-10-16T23:23:01.890Z,19.30
2018-10-16T23:25:30.312Z,20.90
2018-10-16T23:27:58.943Z,21.53
2018-10-16T23:30:27.543Z,20.80
2018-10-16T23:32:55.915Z,21.70
2018-10-16T23:35:25.175Z,28.77
2018-10-16T23:37:53.869Z,26.63
2018-10-16T23:40:22.298Z,19.73
2018-10-16T23:42:50.861Z,18.90
2018-10-16T23:45:19.182Z,17.67
2018-10-16T23:47:47.464Z,24.67
2018-10-16T23:50:16.391Z,19.55
2018-10-16T23:52:44.883Z,26.03
2018-10-16T23:55:13.221Z,24.10
2018-10-16T23:57:41.966Z,30.03
